Time;durP1;ratioP1;P1;durP2;ratioP2;P2;SDS_P1;SDS_P2;PMS_P1;PMS_P2;Temp;Humidity;BMP_temperature;BMP_pressure;BME280_temperature;BME280_humidity;BME280_pressure;Samples;Min_cycle;Max_cycle;Signal;HPM_P1;HPM_P2
2022/06/30 00:02:25;;;;;;;12.60;3.85;;;;;;;;;;6140227;23;20336;-46
2022/06/30 00:04:53;;;;;;;12.18;3.00;;;;;;;;;;6175819;23;20013;-46
2022/06/30 00:07:19;;;;;;;12.90;3.90;;;;;;;;;;6168411;23;20459;-45
2022/06/30 00:09:46;;;;;;;7.93;1.95;;;;;;;;;;6143409;23;20474;-46
2022/06/30 00:12:12;;;;;;;9.20;2.58;;;;;;;;;;6173613;23;20024;-45
2022/06/30 00:14:39;;;;;;;9.15;2.95;;;;;;;;;;6173161;23;20528;-46
2022/06/30 00:17:06;;;;;;;9.77;3.08;;;;;;;;;;6180660;23;20025;-46
2022/06/30 00:19:33;;;;;;;14.60;2.70;;;;;;;;;;6142741;23;20387;-45
2022/06/30 00:22:01;;;;;;;12.73;3.03;;;;;;;;;;6176456;23;20013;-47
2022/06/30 00:24:28;;;;;;;22.02;3.33;;;;;;;;;;6164221;23;20029;-46
2022/06/30 00:26:54;;;;;;;10.77;2.80;;;;;;;;;;6177552;23;20025;-44
2022/06/30 00:29:21;;;;;;;10.63;2.83;;;;;;;;;;6172798;23;20013;-45
2022/06/30 00:31:47;;;;;;;12.25;3.10;;;;;;;;;;6167847;23;20040;-46
2022/06/30 00:34:14;;;;;;;15.10;3.67;;;;;;;;;;6179855;23;20032;-46
2022/06/30 00:36:40;;;;;;;10.18;2.80;;;;;;;;;;6162813;23;20017;-45
2022/06/30 00:39:08;;;;;;;14.45;3.22;;;;;;;;;;6178144;23;20017;-45
2022/06/30 00:41:39;;;;;;;11.10;3.33;;;;;;;;;;6167068;23;20017;-46
2022/06/30 00:44:05;;;;;;;7.15;3.10;;;;;;;;;;6179216;23;20028;-45
2022/06/30 00:46:32;;;;;;;14.07;3.50;;;;;;;;;;6172595;23;20025;-48
2022/06/30 00:48:59;;;;;;;7.57;2.90;;;;;;;;;;6174832;23;20083;-45
2022/06/30 00:51:25;;;;;;;11.73;3.03;;;;;;;;;;6169254;23;20409;-45
2022/06/30 00:53:53;;;;;;;13.70;3.58;;;;;;;;;;6176348;23;20504;-45
2022/06/30 00:56:22;;;;;;;16.05;3.13;;;;;;;;;;6173164;23;20016;-45
2022/06/30 00:58:49;;;;;;;12.30;2.88;;;;;;;;;;6175473;23;20017;-44
2022/06/30 01:01:17;;;;;;;8.05;3.03;;;;;;;;;;6170560;23;20064;-46
2022/06/30 01:03:44;;;;;;;11.02;3.25;;;;;;;;;;6178303;23;20023;-45
2022/06/30 01:06:11;;;;;;;8.30;2.70;;;;;;;;;;6168955;23;20442;-45
2022/06/30 01:08:38;;;;;;;9.05;3.00;;;;;;;;;;6157757;23;20463;-48
2022/06/30 01:13:50;;;;;;;13.27;2.67;;;;;;;;;;6169636;23;20052;-46
2022/06/30 01:16:19;;;;;;;11.73;3.10;;;;;;;;;;6158490;23;20663;-46
2022/06/30 01:18:46;;;;;;;16.58;3.38;;;;;;;;;;6153145;23;20017;-47
2022/06/30 01:21:12;;;;;;;16.02;3.72;;;;;;;;;;6168510;23;20013;-47
2022/06/30 01:23:40;;;;;;;12.95;2.70;;;;;;;;;;6174217;23;20020;-46
2022/06/30 01:26:07;;;;;;;12.90;2.80;;;;;;;;;;6177978;23;20021;-45
2022/06/30 01:28:33;;;;;;;7.15;2.60;;;;;;;;;;6171422;23;20022;-48
2022/06/30 01:31:00;;;;;;;12.05;3.58;;;;;;;;;;6173793;23;20349;-45
2022/06/30 01:33:26;;;;;;;12.88;2.83;;;;;;;;;;6167281;23;20510;-44
2022/06/30 01:35:54;;;;;;;12.02;3.40;;;;;;;;;;6174106;23;20067;-46
2022/06/30 01:38:21;;;;;;;7.85;3.08;;;;;;;;;;6169834;23;20021;-45
2022/06/30 01:40:48;;;;;;;9.18;3.00;;;;;;;;;;6168076;23;20017;-47
2022/06/30 01:43:15;;;;;;;12.07;3.17;;;;;;;;;;6176194;23;20339;-46
2022/06/30 01:45:42;;;;;;;15.45;3.28;;;;;;;;;;6162809;23;20013;-44
2022/06/30 01:48:09;;;;;;;8.48;2.97;;;;;;;;;;6147999;23;20021;-45
2022/06/30 01:50:36;;;;;;;12.23;3.58;;;;;;;;;;6166572;23;20027;-47
2022/06/30 01:53:03;;;;;;;18.15;3.75;;;;;;;;;;6177660;23;20047;-46
2022/06/30 01:55:30;;;;;;;9.38;2.90;;;;;;;;;;6170365;23;20013;-45
2022/06/30 01:57:58;;;;;;;10.68;2.92;;;;;;;;;;6146062;23;20017;-44
2022/06/30 02:00:26;;;;;;;11.70;3.15;;;;;;;;;;6141077;23;20017;-45
2022/06/30 02:02:53;;;;;;;10.65;2.90;;;;;;;;;;6170743;23;20626;-46
2022/06/30 02:05:20;;;;;;;10.32;2.83;;;;;;;;;;6141646;23;20021;-45
2022/06/30 02:07:47;;;;;;;9.40;2.85;;;;;;;;;;6168215;23;20051;-45
2022/06/30 02:10:14;;;;;;;11.60;2.92;;;;;;;;;;6172907;23;20068;-49
2022/06/30 02:12:47;;;;;;;10.93;3.67;;;;;;;;;;6171302;23;20013;-46
2022/06/30 02:15:16;;;;;;;14.65;3.40;;;;;;;;;;6173600;23;20408;-45
2022/06/30 02:17:43;;;;;;;11.18;3.40;;;;;;;;;;6169802;23;20017;-45
2022/06/30 02:20:10;;;;;;;10.45;3.30;;;;;;;;;;6162078;23;20017;-44
2022/06/30 02:22:37;;;;;;;13.65;2.60;;;;;;;;;;6149527;23;20021;-45
2022/06/30 02:25:04;;;;;;;7.65;2.80;;;;;;;;;;6172288;23;20389;-49
2022/06/30 02:27:31;;;;;;;9.20;2.72;;;;;;;;;;6171642;23;20029;-46
2022/06/30 02:29:58;;;;;;;19.33;3.35;;;;;;;;;;6171940;23;20017;-47
2022/06/30 02:32:26;;;;;;;13.55;3.65;;;;;;;;;;6171104;23;20017;-45
2022/06/30 02:34:53;;;;;;;13.23;3.10;;;;;;;;;;6174014;23;20044;-45
2022/06/30 02:37:20;;;;;;;15.13;3.38;;;;;;;;;;6169232;23;20088;-45
2022/06/30 02:39:46;;;;;;;10.60;3.25;;;;;;;;;;6170232;23;20021;-47
2022/06/30 02:42:13;;;;;;;16.38;4.40;;;;;;;;;;6165110;23;20543;-45
2022/06/30 02:44:39;;;;;;;10.63;2.90;;;;;;;;;;6172805;23;20017;-44
2022/06/30 02:47:06;;;;;;;18.23;3.78;;;;;;;;;;6147497;23;20024;-45
2022/06/30 02:49:36;;;;;;;13.05;3.20;;;;;;;;;;6140143;23;20406;-45
2022/06/30 02:52:02;;;;;;;10.88;3.10;;;;;;;;;;6175229;23;20027;-44
2022/06/30 02:54:29;;;;;;;7.05;2.70;;;;;;;;;;6172122;23;20024;-45
2022/06/30 02:56:55;;;;;;;12.55;3.40;;;;;;;;;;6179931;23;20071;-46
2022/06/30 02:59:22;;;;;;;13.52;3.47;;;;;;;;;;6165132;23;20017;-47
2022/06/30 03:01:48;;;;;;;10.07;3.08;;;;;;;;;;6175843;23;20033;-47
2022/06/30 03:04:15;;;;;;;17.13;3.30;;;;;;;;;;6170233;23;20017;-47
2022/06/30 03:06:42;;;;;;;13.98;3.60;;;;;;;;;;6173024;23;20017;-47
2022/06/30 03:09:09;;;;;;;13.90;3.55;;;;;;;;;;6166912;23;20013;-44
2022/06/30 03:11:35;;;;;;;11.25;3.67;;;;;;;;;;6174735;23;20017;-44
2022/06/30 03:14:02;;;;;;;8.82;2.90;;;;;;;;;;6170498;23;20020;-44
2022/06/30 03:16:29;;;;;;;10.70;3.28;;;;;;;;;;6176181;23;20069;-45
2022/06/30 03:18:55;;;;;;;16.48;3.42;;;;;;;;;;6174434;23;20376;-45
2022/06/30 03:21:22;;;;;;;11.45;3.25;;;;;;;;;;6172021;23;20013;-44
2022/06/30 03:23:50;;;;;;;13.65;3.35;;;;;;;;;;6176708;23;20017;-46
2022/06/30 03:26:17;;;;;;;9.65;2.60;;;;;;;;;;6170306;23;20013;-45
2022/06/30 03:28:43;;;;;;;16.40;3.35;;;;;;;;;;6173273;23;20021;-45
2022/06/30 03:31:10;;;;;;;10.15;2.60;;;;;;;;;;6171814;23;20013;-46
2022/06/30 03:33:37;;;;;;;12.50;4.05;;;;;;;;;;6146019;23;20017;-45
2022/06/30 03:36:03;;;;;;;7.20;3.08;;;;;;;;;;6173636;23;20318;-46
2022/06/30 03:38:31;;;;;;;11.75;3.28;;;;;;;;;;6172852;23;20012;-46
2022/06/30 03:40:59;;;;;;;12.20;2.30;;;;;;;;;;6173040;23;20023;-45
2022/06/30 03:43:25;;;;;;;6.82;2.95;;;;;;;;;;6161647;23;20021;-45
2022/06/30 03:45:52;;;;;;;7.65;2.40;;;;;;;;;;6174694;23;20366;-45
2022/06/30 03:48:18;;;;;;;10.20;2.28;;;;;;;;;;6157096;23;20069;-45
2022/06/30 03:50:45;;;;;;;7.35;2.35;;;;;;;;;;6165907;23;20017;-46
2022/06/30 03:53:11;;;;;;;9.38;2.80;;;;;;;;;;6171299;23;20013;-44
2022/06/30 03:55:39;;;;;;;5.85;3.22;;;;;;;;;;6168341;23;20395;-45
2022/06/30 03:58:07;;;;;;;16.67;3.20;;;;;;;;;;6176429;23;20491;-44
2022/06/30 04:00:34;;;;;;;11.55;3.53;;;;;;;;;;6172401;23;20036;-47
2022/06/30 04:03:01;;;;;;;9.18;2.30;;;;;;;;;;6172920;23;20124;-46
2022/06/30 04:05:27;;;;;;;21.73;2.92;;;;;;;;;;6156649;23;20040;-46
2022/06/30 04:07:54;;;;;;;9.73;3.83;;;;;;;;;;6172333;23;20017;-47
2022/06/30 04:10:21;;;;;;;8.65;2.75;;;;;;;;;;6171118;23;20044;-45
2022/06/30 04:12:47;;;;;;;8.27;2.75;;;;;;;;;;6166281;23;20052;-45
2022/06/30 04:15:15;;;;;;;10.27;2.63;;;;;;;;;;6171210;23;20069;-46
2022/06/30 04:17:42;;;;;;;14.50;2.80;;;;;;;;;;6166702;23;20331;-44
2022/06/30 04:20:15;;;;;;;10.35;2.58;;;;;;;;;;6169272;23;20072;-45
2022/06/30 04:22:42;;;;;;;13.85;3.00;;;;;;;;;;6166367;23;20017;-46
2022/06/30 04:25:10;;;;;;;9.85;2.55;;;;;;;;;;6175434;23;20013;-44
2022/06/30 04:27:37;;;;;;;9.07;2.58;;;;;;;;;;6170092;23;20021;-44
2022/06/30 04:30:04;;;;;;;7.00;2.92;;;;;;;;;;6169755;23;20013;-45
2022/06/30 04:32:37;;;;;;;10.50;3.00;;;;;;;;;;6170490;23;20052;-46
2022/06/30 04:35:04;;;;;;;15.63;3.25;;;;;;;;;;6160100;23;20024;-45
2022/06/30 04:37:31;;;;;;;22.60;3.90;;;;;;;;;;6171989;23;20017;-45
2022/06/30 04:42:37;;;;;;;12.98;2.63;;;;;;;;;;6171140;23;20475;-46
2022/06/30 04:45:04;;;;;;;25.30;3.22;;;;;;;;;;6158256;23;20068;-46
2022/06/30 04:47:32;;;;;;;16.88;2.90;;;;;;;;;;6174227;23;20029;-45
2022/06/30 04:49:58;;;;;;;15.85;3.13;;;;;;;;;;6168122;23;20017;-44
2022/06/30 04:52:25;;;;;;;14.63;3.28;;;;;;;;;;6174732;23;20153;-45
2022/06/30 04:54:51;;;;;;;17.15;3.28;;;;;;;;;;6160382;23;20501;-44
2022/06/30 04:57:18;;;;;;;6.78;4.15;;;;;;;;;;6178417;23;20013;-46
2022/06/30 04:59:44;;;;;;;10.55;2.97;;;;;;;;;;6169596;23;20012;-45
2022/06/30 05:02:11;;;;;;;17.52;3.92;;;;;;;;;;6177041;23;20044;-44
2022/06/30 05:04:39;;;;;;;9.07;2.63;;;;;;;;;;6168528;23;20017;-45
2022/06/30 05:07:05;;;;;;;10.80;2.72;;;;;;;;;;6177912;23;20017;-46
2022/06/30 05:09:33;;;;;;;10.95;2.70;;;;;;;;;;6167389;23;20017;-46
2022/06/30 05:11:59;;;;;;;10.77;2.88;;;;;;;;;;6152503;23;20013;-44
2022/06/30 05:14:26;;;;;;;14.32;3.75;;;;;;;;;;6169913;23;20020;-45
2022/06/30 05:16:52;;;;;;;10.25;3.13;;;;;;;;;;6171836;23;20023;-45
2022/06/30 05:19:18;;;;;;;14.60;4.35;;;;;;;;;;6173979;23;20072;-45
2022/06/30 05:21:46;;;;;;;19.25;3.25;;;;;;;;;;6168457;23;20013;-46
2022/06/30 05:26:56;;;;;;;8.60;2.58;;;;;;;;;;6106782;23;20021;-46
2022/06/30 05:29:23;;;;;;;10.77;3.00;;;;;;;;;;6170465;23;20037;-46
2022/06/30 05:31:49;;;;;;;10.80;3.30;;;;;;;;;;6157981;23;20049;-45
2022/06/30 05:34:16;;;;;;;12.48;3.75;;;;;;;;;;6175159;23;20013;-45
2022/06/30 05:36:43;;;;;;;14.40;3.08;;;;;;;;;;6162138;23;20040;-45
2022/06/30 05:39:11;;;;;;;11.10;2.88;;;;;;;;;;6177547;23;20039;-44
2022/06/30 05:41:38;;;;;;;9.02;2.95;;;;;;;;;;6174972;23;20068;-44
2022/06/30 05:44:05;;;;;;;22.92;2.75;;;;;;;;;;6177045;23;20017;-45
2022/06/30 05:46:31;;;;;;;13.85;3.53;;;;;;;;;;6166684;23;20016;-46
2022/06/30 05:48:58;;;;;;;14.48;3.35;;;;;;;;;;6174617;23;20032;-46
2022/06/30 05:51:24;;;;;;;8.10;3.10;;;;;;;;;;6166586;23;20013;-48
2022/06/30 05:53:51;;;;;;;10.70;3.42;;;;;;;;;;6173936;23;20066;-45
2022/06/30 05:56:19;;;;;;;10.13;2.22;;;;;;;;;;6164541;23;20467;-46
2022/06/30 05:58:46;;;;;;;11.35;3.17;;;;;;;;;;6174698;23;20017;-46
2022/06/30 06:01:12;;;;;;;5.68;2.55;;;;;;;;;;6150440;23;20440;-45
2022/06/30 06:03:39;;;;;;;13.07;3.20;;;;;;;;;;6174683;23;20020;-45
2022/06/30 06:06:05;;;;;;;11.07;3.08;;;;;;;;;;6162393;23;20040;-45
2022/06/30 06:08:32;;;;;;;11.15;3.10;;;;;;;;;;6171669;23;20025;-46
2022/06/30 06:10:59;;;;;;;18.58;3.20;;;;;;;;;;6160638;23;20100;-45
2022/06/30 06:13:27;;;;;;;9.70;2.80;;;;;;;;;;6168866;23;20017;-46
2022/06/30 06:15:53;;;;;;;8.95;2.70;;;;;;;;;;6167925;23;20533;-47
2022/06/30 06:18:20;;;;;;;11.38;2.80;;;;;;;;;;6165597;23;20032;-45
2022/06/30 06:20:46;;;;;;;8.00;2.10;;;;;;;;;;6173515;23;20013;-46
2022/06/30 06:23:13;;;;;;;10.85;2.80;;;;;;;;;;6170425;23;20049;-44
2022/06/30 06:25:39;;;;;;;7.30;2.33;;;;;;;;;;6171407;23;20028;-45
2022/06/30 06:30:51;;;;;;;9.68;3.65;;;;;;;;;;6162889;23;20076;-45
2022/06/30 06:33:18;;;;;;;9.23;2.42;;;;;;;;;;6173008;23;20013;-45
2022/06/30 06:35:44;;;;;;;13.35;3.67;;;;;;;;;;6164894;23;20019;-45
2022/06/30 06:38:11;;;;;;;8.20;2.75;;;;;;;;;;6163767;23;20021;-47
2022/06/30 06:40:37;;;;;;;11.60;3.03;;;;;;;;;;6175768;23;20016;-45
2022/06/30 06:43:04;;;;;;;12.38;2.80;;;;;;;;;;6170626;23;20013;-46
2022/06/30 06:45:32;;;;;;;12.43;2.65;;;;;;;;;;6170649;23;20017;-45
2022/06/30 06:48:00;;;;;;;11.10;3.72;;;;;;;;;;6172627;23;20267;-45
2022/06/30 06:50:26;;;;;;;8.68;3.25;;;;;;;;;;6160334;23;20098;-47
2022/06/30 06:52:53;;;;;;;12.23;3.78;;;;;;;;;;6157746;23;20087;-47
2022/06/30 06:55:20;;;;;;;7.28;2.53;;;;;;;;;;6165581;23;20048;-44
2022/06/30 06:57:47;;;;;;;8.48;3.20;;;;;;;;;;6142188;23;20021;-50
2022/06/30 07:00:14;;;;;;;8.43;2.55;;;;;;;;;;6169919;23;20029;-50
2022/06/30 07:02:41;;;;;;;13.00;3.80;;;;;;;;;;6169717;23;20012;-47
2022/06/30 07:05:10;;;;;;;8.10;2.33;;;;;;;;;;6170673;23;20440;-44
2022/06/30 07:07:37;;;;;;;11.30;1.98;;;;;;;;;;6159708;23;20023;-44
2022/06/30 07:10:05;;;;;;;7.65;2.10;;;;;;;;;;6162431;23;20020;-47
2022/06/30 07:12:32;;;;;;;9.35;2.03;;;;;;;;;;6170385;23;20037;-45
2022/06/30 07:14:58;;;;;;;11.15;2.58;;;;;;;;;;6148953;23;20017;-46
2022/06/30 07:17:25;;;;;;;8.85;2.40;;;;;;;;;;6146062;23;20408;-46
2022/06/30 07:19:52;;;;;;;19.20;2.42;;;;;;;;;;6159462;23;20469;-46
2022/06/30 07:22:20;;;;;;;16.35;2.47;;;;;;;;;;6170606;23;20074;-46
2022/06/30 07:24:46;;;;;;;10.98;2.40;;;;;;;;;;6175488;23;20017;-45
2022/06/30 07:27:13;;;;;;;7.60;2.30;;;;;;;;;;6178233;23;20017;-45
2022/06/30 07:29:39;;;;;;;7.22;2.03;;;;;;;;;;6162662;23;20025;-44
2022/06/30 07:32:06;;;;;;;8.75;1.95;;;;;;;;;;6171167;23;20013;-45
2022/06/30 07:34:33;;;;;;;11.52;3.05;;;;;;;;;;6167245;23;20025;-44
2022/06/30 07:36:59;;;;;;;13.70;2.22;;;;;;;;;;6171388;23;20021;-46
2022/06/30 07:39:27;;;;;;;10.73;2.35;;;;;;;;;;6165138;23;20071;-45
2022/06/30 07:41:55;;;;;;;8.35;1.92;;;;;;;;;;6170640;23;20071;-46
2022/06/30 07:44:22;;;;;;;9.00;2.53;;;;;;;;;;6143514;23;20032;-46
2022/06/30 07:46:49;;;;;;;10.02;4.05;;;;;;;;;;6167182;23;20430;-46
2022/06/30 07:49:16;;;;;;;5.13;2.60;;;;;;;;;;6165708;23;20056;-45
2022/06/30 07:51:43;;;;;;;5.60;1.45;;;;;;;;;;6174241;23;20456;-44
2022/06/30 07:54:09;;;;;;;7.10;2.08;;;;;;;;;;6162180;23;20075;-45
2022/06/30 07:56:37;;;;;;;6.97;2.03;;;;;;;;;;6173402;23;20017;-45
2022/06/30 07:59:03;;;;;;;11.13;3.00;;;;;;;;;;6167315;23;20028;-46
2022/06/30 08:01:30;;;;;;;8.77;1.80;;;;;;;;;;6172514;23;20029;-46
2022/06/30 08:03:57;;;;;;;7.03;2.53;;;;;;;;;;6177075;23;20099;-45
2022/06/30 08:06:24;;;;;;;7.18;1.92;;;;;;;;;;6167912;23;20124;-44
2022/06/30 08:08:52;;;;;;;9.15;2.20;;;;;;;;;;6171806;23;20024;-45
2022/06/30 08:11:19;;;;;;;11.60;2.00;;;;;;;;;;6162716;23;20631;-45
2022/06/30 08:13:47;;;;;;;7.32;2.40;;;;;;;;;;6166113;23;20044;-46
2022/06/30 08:16:14;;;;;;;5.88;1.83;;;;;;;;;;6165659;23;20024;-49
2022/06/30 08:18:41;;;;;;;9.18;1.98;;;;;;;;;;6172965;23;20087;-47
2022/06/30 08:21:09;;;;;;;6.38;1.85;;;;;;;;;;6163504;23;20021;-45
2022/06/30 08:23:35;;;;;;;6.95;1.77;;;;;;;;;;6155079;23;20013;-46
2022/06/30 08:26:02;;;;;;;4.63;1.23;;;;;;;;;;6164061;23;20021;-45
2022/06/30 08:28:29;;;;;;;12.75;1.77;;;;;;;;;;6170156;23;20021;-47
2022/06/30 08:30:57;;;;;;;3.45;1.35;;;;;;;;;;6169143;23;20471;-44
2022/06/30 08:33:23;;;;;;;3.58;1.40;;;;;;;;;;6160189;23;20013;-46
2022/06/30 08:35:50;;;;;;;4.47;1.88;;;;;;;;;;6173223;23;20021;-47
2022/06/30 08:38:16;;;;;;;6.70;1.63;;;;;;;;;;6164058;23;20017;-46
2022/06/30 08:43:29;;;;;;;6.40;1.50;;;;;;;;;;6146548;23;20017;-44
2022/06/30 08:45:58;;;;;;;3.85;1.08;;;;;;;;;;6133139;23;20017;-47
2022/06/30 08:48:25;;;;;;;6.93;1.43;;;;;;;;;;6112263;23;20369;-46
2022/06/30 08:50:55;;;;;;;6.38;1.10;;;;;;;;;;6144134;23;20809;-46
2022/06/30 08:53:24;;;;;;;5.30;1.48;;;;;;;;;;6150267;23;20041;-48
2022/06/30 08:55:51;;;;;;;8.80;1.80;;;;;;;;;;6117337;23;20017;-46
2022/06/30 08:58:22;;;;;;;5.22;1.40;;;;;;;;;;6120612;23;20410;-45
2022/06/30 09:00:52;;;;;;;6.88;1.50;;;;;;;;;;6156455;23;20020;-45
2022/06/30 09:03:20;;;;;;;6.47;1.30;;;;;;;;;;6161998;23;20044;-45
2022/06/30 09:05:47;;;;;;;7.03;2.03;;;;;;;;;;6173321;23;20017;-46
2022/06/30 09:08:14;;;;;;;5.47;1.75;;;;;;;;;;6146084;23;20022;-45
2022/06/30 09:10:47;;;;;;;9.43;2.40;;;;;;;;;;6151541;23;20112;-45
2022/06/30 09:13:14;;;;;;;5.45;1.63;;;;;;;;;;6154632;23;20024;-45
2022/06/30 09:15:42;;;;;;;5.22;1.50;;;;;;;;;;6172703;23;20017;-45
2022/06/30 09:18:22;;;;;;;6.40;1.80;;;;;;;;;;6170366;23;20096;-46
2022/06/30 09:20:48;;;;;;;8.88;2.33;;;;;;;;;;6177132;23;20036;-44
2022/06/30 09:23:19;;;;;;;9.98;2.90;;;;;;;;;;6166581;23;20013;-44
2022/06/30 09:25:47;;;;;;;6.53;1.77;;;;;;;;;;6176000;23;20124;-46
2022/06/30 09:28:14;;;;;;;11.65;2.25;;;;;;;;;;6170348;23;20045;-47
2022/06/30 09:30:41;;;;;;;5.95;1.67;;;;;;;;;;6170142;23;20020;-46
2022/06/30 09:33:08;;;;;;;4.38;1.52;;;;;;;;;;6150312;23;20037;-44
2022/06/30 09:35:38;;;;;;;6.32;1.50;;;;;;;;;;6164730;23;20071;-45
2022/06/30 09:38:05;;;;;;;8.50;2.30;;;;;;;;;;6144873;23;20019;-46
2022/06/30 09:40:33;;;;;;;9.38;2.53;;;;;;;;;;6172570;23;20017;-45
2022/06/30 09:43:00;;;;;;;9.95;2.13;;;;;;;;;;6162485;23;20072;-45
2022/06/30 09:45:37;;;;;;;5.25;2.03;;;;;;;;;;6175759;23;20013;-45
2022/06/30 09:48:04;;;;;;;4.82;1.88;;;;;;;;;;6162352;23;20017;-45
2022/06/30 09:50:31;;;;;;;10.63;2.42;;;;;;;;;;6171315;23;20850;-44
2022/06/30 09:53:10;;;;;;;10.43;2.33;;;;;;;;;;6166100;23;20373;-44
2022/06/30 09:55:36;;;;;;;;;;;;;;;;;;6168946;23;20031;-46
2022/06/30 09:58:03;;;;;;;9.95;2.10;;;;;;;;;;6158822;23;19916;-45
2022/06/30 10:00:29;;;;;;;5.05;1.55;;;;;;;;;;6178342;23;20017;-46
2022/06/30 10:03:04;;;;;;;10.80;2.25;;;;;;;;;;6159439;23;20017;-44
2022/06/30 10:05:31;;;;;;;6.38;1.90;;;;;;;;;;6177128;23;20100;-43
2022/06/30 10:07:58;;;;;;;9.45;1.83;;;;;;;;;;6167456;23;20501;-44
2022/06/30 10:10:26;;;;;;;7.68;1.85;;;;;;;;;;6169408;23;20025;-44
2022/06/30 10:12:53;;;;;;;8.90;1.80;;;;;;;;;;6162111;23;20024;-46
2022/06/30 10:15:22;;;;;;;7.72;2.30;;;;;;;;;;6177431;23;20016;-46
2022/06/30 10:17:51;;;;;;;8.50;2.15;;;;;;;;;;6167578;23;20013;-45
2022/06/30 10:20:17;;;;;;;8.63;2.13;;;;;;;;;;6173728;23;20072;-46
2022/06/30 10:22:44;;;;;;;9.73;1.48;;;;;;;;;;6131062;23;20017;-47
2022/06/30 10:25:10;;;;;;;11.48;2.60;;;;;;;;;;6175869;23;20013;-46
2022/06/30 10:27:38;;;;;;;6.28;1.83;;;;;;;;;;6168711;23;20016;-45
2022/06/30 10:30:07;;;;;;;5.38;1.48;;;;;;;;;;6175103;23;20075;-46
2022/06/30 10:32:49;;;;;;;7.82;1.73;;;;;;;;;;6165841;23;20542;-48
2022/06/30 10:35:19;;;;;;;6.55;1.95;;;;;;;;;;6144414;23;20056;-45
2022/06/30 10:37:49;;;;;;;9.23;2.15;;;;;;;;;;6177556;23;20635;-45
2022/06/30 10:40:20;;;;;;;7.95;1.67;;;;;;;;;;6166607;23;20067;-45
2022/06/30 10:42:49;;;;;;;6.90;1.55;;;;;;;;;;6172819;23;20040;-44
2022/06/30 10:45:34;;;;;;;6.32;1.45;;;;;;;;;;6121669;23;20346;-46
2022/06/30 10:48:02;;;;;;;5.03;1.48;;;;;;;;;;6167943;23;20013;-46
2022/06/30 10:50:33;;;;;;;3.03;1.15;;;;;;;;;;6166624;23;20036;-44
2022/06/30 10:53:00;;;;;;;7.65;1.60;;;;;;;;;;6143789;23;20017;-51
2022/06/30 10:55:28;;;;;;;8.32;2.05;;;;;;;;;;6090891;23;20395;-45
2022/06/30 10:58:07;;;;;;;7.90;1.75;;;;;;;;;;6091467;23;20023;-47
2022/06/30 11:01:01;;;;;;;5.10;1.40;;;;;;;;;;6172896;23;20044;-46
2022/06/30 11:03:58;;;;;;;3.78;1.27;;;;;;;;;;6169147;23;20035;-45
2022/06/30 11:06:45;;;;;;;2.67;1.00;;;;;;;;;;6175085;23;20476;-46
2022/06/30 11:09:11;;;;;;;4.47;1.15;;;;;;;;;;6170087;23;20029;-47
2022/06/30 11:11:44;;;;;;;6.07;1.30;;;;;;;;;;6159024;23;20096;-48
2022/06/30 11:14:27;;;;;;;5.10;1.42;;;;;;;;;;6165872;23;20013;-46
2022/06/30 11:16:54;;;;;;;5.65;1.30;;;;;;;;;;6175421;23;20017;-48
2022/06/30 11:19:23;;;;;;;4.68;1.40;;;;;;;;;;6164216;23;20076;-46
2022/06/30 11:21:50;;;;;;;3.50;1.23;;;;;;;;;;6176478;23;20088;-47
2022/06/30 11:24:21;;;;;;;5.30;1.52;;;;;;;;;;6162665;23;20444;-48
2022/06/30 11:29:34;;;;;;;3.65;1.23;;;;;;;;;;6167478;23;20084;-46
2022/06/30 11:32:01;;;;;;;4.40;1.08;;;;;;;;;;6171384;23;20067;-46
2022/06/30 11:34:28;;;;;;;1.67;0.90;;;;;;;;;;6155065;23;20242;-46
2022/06/30 11:36:55;;;;;;;4.03;0.70;;;;;;;;;;6176201;23;20614;-46
2022/06/30 11:39:22;;;;;;;3.45;0.63;;;;;;;;;;6138149;23;20491;-46
2022/06/30 11:41:59;;;;;;;2.20;0.47;;;;;;;;;;6174392;23;20023;-46
2022/06/30 11:44:27;;;;;;;1.45;0.75;;;;;;;;;;6136052;23;20132;-48
2022/06/30 11:46:56;;;;;;;1.98;0.60;;;;;;;;;;6174134;23;20017;-45
2022/06/30 11:49:24;;;;;;;0.35;0.22;;;;;;;;;;6168365;23;20024;-46
2022/06/30 11:51:51;;;;;;;2.95;1.13;;;;;;;;;;6171547;23;20044;-48
2022/06/30 11:54:18;;;;;;;1.20;0.60;;;;;;;;;;6163095;23;20009;-46
2022/06/30 11:56:45;;;;;;;2.78;0.85;;;;;;;;;;6172770;23;20040;-47
2022/06/30 11:59:12;;;;;;;3.25;0.80;;;;;;;;;;6164951;23;20080;-46
2022/06/30 12:01:39;;;;;;;2.63;0.43;;;;;;;;;;6136882;23;20048;-48
2022/06/30 12:04:17;;;;;;;2.80;0.50;;;;;;;;;;6171830;23;20407;-47
2022/06/30 12:06:44;;;;;;;3.27;1.33;;;;;;;;;;6172169;23;20017;-48
2022/06/30 12:09:10;;;;;;;2.97;0.60;;;;;;;;;;6158361;23;20771;-45
2022/06/30 12:11:37;;;;;;;0.85;0.75;;;;;;;;;;6171207;23;20013;-45
2022/06/30 12:14:04;;;;;;;1.95;0.77;;;;;;;;;;6161896;23;20020;-46
2022/06/30 12:16:31;;;;;;;1.60;0.68;;;;;;;;;;6176196;23;20053;-48
2022/06/30 12:18:58;;;;;;;2.05;1.15;;;;;;;;;;6172317;23;20013;-48
2022/06/30 12:21:29;;;;;;;2.78;0.90;;;;;;;;;;6137022;23;20846;-45
2022/06/30 12:23:57;;;;;;;2.75;0.70;;;;;;;;;;6157249;23;20453;-45
2022/06/30 12:26:24;;;;;;;2.70;0.45;;;;;;;;;;6162586;23;20467;-45
2022/06/30 12:28:54;;;;;;;2.65;0.65;;;;;;;;;;6167369;23;20739;-45
2022/06/30 12:31:20;;;;;;;;;;;;;;;;;;6173721;23;20035;-47
2022/06/30 12:33:47;;;;;;;2.63;0.73;;;;;;;;;;6160365;23;20286;-48
2022/06/30 12:36:15;;;;;;;2.30;0.50;;;;;;;;;;6164767;23;20013;-46
2022/06/30 12:38:42;;;;;;;1.10;0.50;;;;;;;;;;6165855;23;20532;-45
2022/06/30 12:41:11;;;;;;;2.03;0.40;;;;;;;;;;6179049;23;20017;-47
2022/06/30 12:43:45;;;;;;;1.93;1.00;;;;;;;;;;6164541;23;20063;-46
2022/06/30 12:46:11;;;;;;;2.58;1.05;;;;;;;;;;6160452;23;20017;-47
2022/06/30 12:48:42;;;;;;;1.35;0.60;;;;;;;;;;6140322;23;20129;-46
2022/06/30 12:51:09;;;;;;;1.95;0.47;;;;;;;;;;6159430;23;20232;-49
2022/06/30 12:53:36;;;;;;;2.45;0.80;;;;;;;;;;6087017;23;20013;-46
2022/06/30 12:56:08;;;;;;;2.85;0.52;;;;;;;;;;6144944;23;20025;-47
2022/06/30 12:58:48;;;;;;;3.88;0.82;;;;;;;;;;6165630;23;20013;-45
2022/06/30 13:01:15;;;;;;;3.13;0.93;;;;;;;;;;6140767;23;20021;-47
2022/06/30 13:03:50;;;;;;;3.05;0.70;;;;;;;;;;6153258;23;20424;-47
2022/06/30 13:06:16;;;;;;;3.00;0.65;;;;;;;;;;6103367;23;20013;-45
2022/06/30 13:08:46;;;;;;;1.85;0.50;;;;;;;;;;6166936;23;20017;-46
2022/06/30 13:11:16;;;;;;;0.65;0.40;;;;;;;;;;6166363;23;20025;-46
2022/06/30 13:13:43;;;;;;;1.85;0.40;;;;;;;;;;6162256;23;20017;-48
2022/06/30 13:16:10;;;;;;;1.25;0.45;;;;;;;;;;6171334;23;20013;-46
2022/06/30 13:18:36;;;;;;;1.92;0.47;;;;;;;;;;6162363;23;20072;-46
2022/06/30 13:21:03;;;;;;;1.73;0.45;;;;;;;;;;6166891;23;20017;-46
2022/06/30 13:23:30;;;;;;;0.45;0.40;;;;;;;;;;6155885;23;20044;-46
2022/06/30 13:25:57;;;;;;;1.52;0.38;;;;;;;;;;6167586;23;20016;-45
2022/06/30 13:28:37;;;;;;;0.93;0.30;;;;;;;;;;6170451;23;20025;-48
2022/06/30 13:31:05;;;;;;;0.63;0.25;;;;;;;;;;6132158;23;20021;-45
2022/06/30 13:33:34;;;;;;;1.17;0.40;;;;;;;;;;6168263;23;20015;-47
2022/06/30 13:36:01;;;;;;;2.38;0.63;;;;;;;;;;6176885;23;20060;-47
2022/06/30 13:38:28;;;;;;;2.80;0.50;;;;;;;;;;6165007;23;20404;-47
2022/06/30 13:40:55;;;;;;;1.23;0.50;;;;;;;;;;6177826;23;20021;-48
2022/06/30 13:43:22;;;;;;;0.88;0.50;;;;;;;;;;6168540;23;20043;-48
2022/06/30 13:45:50;;;;;;;3.13;0.88;;;;;;;;;;6167196;23;20028;-46
2022/06/30 13:48:18;;;;;;;1.02;0.50;;;;;;;;;;6169382;23;20027;-49
2022/06/30 13:50:45;;;;;;;4.72;0.70;;;;;;;;;;6172213;23;20025;-51
2022/06/30 13:53:11;;;;;;;2.03;0.50;;;;;;;;;;6169572;23;20013;-49
2022/06/30 13:55:38;;;;;;;1.33;0.68;;;;;;;;;;6172242;23;20013;-49
2022/06/30 13:58:05;;;;;;;1.90;0.50;;;;;;;;;;6167226;23;20027;-46
2022/06/30 14:00:32;;;;;;;1.88;0.45;;;;;;;;;;6179354;23;20017;-46
2022/06/30 14:03:02;;;;;;;2.15;0.70;;;;;;;;;;6166717;23;20021;-45
2022/06/30 14:05:29;;;;;;;4.97;0.80;;;;;;;;;;6174069;23;20021;-45
2022/06/30 14:07:56;;;;;;;1.50;0.65;;;;;;;;;;6175774;23;20017;-46
2022/06/30 14:10:23;;;;;;;6.05;1.48;;;;;;;;;;6170873;23;20165;-50
2022/06/30 14:12:51;;;;;;;2.88;0.60;;;;;;;;;;6171763;23;20100;-46
2022/06/30 14:15:19;;;;;;;2.13;0.60;;;;;;;;;;6170101;23;20100;-44
2022/06/30 14:17:46;;;;;;;3.25;0.85;;;;;;;;;;6168895;23;20024;-47
2022/06/30 14:20:14;;;;;;;3.85;1.15;;;;;;;;;;6156196;23;20479;-45
2022/06/30 14:22:41;;;;;;;2.08;0.88;;;;;;;;;;6169298;23;20355;-45
2022/06/30 14:25:09;;;;;;;2.70;0.88;;;;;;;;;;6141244;23;20017;-46
2022/06/30 14:27:36;;;;;;;1.58;0.95;;;;;;;;;;6165882;23;20017;-45
2022/06/30 14:30:04;;;;;;;3.13;0.93;;;;;;;;;;6170315;23;20017;-47
2022/06/30 14:32:31;;;;;;;1.10;0.82;;;;;;;;;;6165551;23;20086;-46
2022/06/30 14:34:58;;;;;;;5.07;1.05;;;;;;;;;;6173789;23;20080;-45
2022/06/30 14:37:26;;;;;;;1.67;0.57;;;;;;;;;;6163880;23;20028;-48
2022/06/30 14:39:52;;;;;;;1.90;0.38;;;;;;;;;;6169464;23;20364;-49
2022/06/30 14:45:03;;;;;;;0.68;0.50;;;;;;;;;;6160315;23;20044;-45
2022/06/30 14:47:30;;;;;;;0.63;0.60;;;;;;;;;;6175960;23;20020;-46
2022/06/30 14:49:57;;;;;;;1.70;0.68;;;;;;;;;;6163579;23;20028;-46
2022/06/30 14:52:25;;;;;;;2.00;0.60;;;;;;;;;;6173354;23;20531;-45
2022/06/30 14:54:52;;;;;;;2.38;0.90;;;;;;;;;;6160483;23;20017;-47
2022/06/30 14:57:19;;;;;;;2.58;1.17;;;;;;;;;;6170831;23;20017;-47
2022/06/30 14:59:45;;;;;;;1.30;0.93;;;;;;;;;;6162371;23;20045;-47
2022/06/30 15:02:12;;;;;;;1.63;0.77;;;;;;;;;;6172810;23;20017;-45